Time;durP1;ratioP1;P1;durP2;ratioP2;P2;SDS_P1;SDS_P2;PMS_P1;PMS_P2;Temp;Humidity;BMP_temperature;BMP_pressure;BME280_temperature;BME280_humidity;BME280_pressure;Samples;Min_cycle;Max_cycle;Signal;HPM_P1;HPM_P2
2022/06/06 00:01:35;;;;;;;4.85;3.25;;;19.60;99.90;;;;;;5014004;28;20034;-78
2022/06/06 00:04:01;;;;;;;4.32;3.55;;;19.50;99.90;;;;;;5013451;28;20395;-78
2022/06/06 00:06:26;;;;;;;2.90;2.60;;;19.50;99.90;;;;;;5013860;28;20025;-78
2022/06/06 00:08:52;;;;;;;3.00;2.70;;;19.50;99.80;;;;;;5013899;28;20494;-78
2022/06/06 00:11:34;;;;;;;2.60;2.35;;;19.40;99.70;;;;;;5013491;28;20034;-79
2022/06/06 00:14:00;;;;;;;2.88;2.30;;;19.50;99.70;;;;;;5013419;28;20034;-78
2022/06/06 00:16:29;;;;;;;2.85;2.60;;;19.40;99.90;;;;;;5013427;28;20033;-77
2022/06/06 00:18:55;;;;;;;3.00;2.70;;;19.30;99.90;;;;;;5013211;28;20041;-78
2022/06/06 00:21:21;;;;;;;3.03;2.30;;;19.30;99.90;;;;;;5013607;28;20048;-78
2022/06/06 00:23:46;;;;;;;3.55;2.58;;;19.20;99.90;;;;;;5013195;28;20060;-77
2022/06/06 00:26:21;;;;;;;3.65;3.00;;;19.20;99.90;;;;;;5013403;28;20058;-79
2022/06/06 00:28:49;;;;;;;4.22;2.83;;;19.30;99.90;;;;;;5013265;28;20153;-79
2022/06/06 00:36:50;;;;;;;4.00;3.13;;;19.10;99.90;;;;;;5014383;28;20041;-79
2022/06/06 00:39:17;;;;;;;6.50;2.92;;;19.20;99.90;;;;;;5013995;28;20080;-78
2022/06/06 00:41:55;;;;;;;4.03;3.30;;;19.20;99.90;;;;;;5013368;28;20141;-78
2022/06/06 00:44:32;;;;;;;8.15;3.55;;;19.20;99.90;;;;;;5013557;28;20033;-78
2022/06/06 00:47:13;;;;;;;5.77;3.73;;;19.20;99.90;;;;;;5012656;28;20041;-77
2022/06/06 00:49:44;;;;;;;4.45;3.38;;;19.10;99.90;;;;;;5011762;28;20030;-81
2022/06/06 00:52:15;;;;;;;3.90;3.42;;;19.10;99.90;;;;;;5012946;28;20038;-78
2022/06/06 00:54:43;;;;;;;5.90;3.83;;;19.10;99.90;;;;;;5013528;28;20066;-78
2022/06/06 00:57:15;;;;;;;3.67;3.28;;;19.10;99.90;;;;;;5012617;28;20100;-78
2022/06/06 00:59:43;;;;;;;4.18;3.40;;;19.00;99.90;;;;;;5011487;28;20476;-78
2022/06/06 01:02:11;;;;;;;;;;;19.00;99.90;;;;;;5013129;28;20046;-78
2022/06/06 01:04:39;;;;;;;3.65;3.25;;;19.00;99.90;;;;;;5011171;28;19909;-77
2022/06/06 01:07:08;;;;;;;6.43;3.60;;;19.00;99.90;;;;;;5012607;28;20064;-78
2022/06/06 01:09:34;;;;;;;4.32;3.53;;;19.00;99.90;;;;;;5012617;28;20022;-80
2022/06/06 01:12:05;;;;;;;3.88;3.55;;;19.00;99.80;;;;;;5012383;28;20475;-79
2022/06/06 01:14:41;;;;;;;4.93;3.45;;;18.90;99.70;;;;;;5012479;28;20036;-78
2022/06/06 01:17:26;;;;;;;4.50;3.70;;;18.90;99.70;;;;;;5012281;28;20045;-78
2022/06/06 01:19:51;;;;;;;5.63;3.85;;;18.90;99.70;;;;;;5012340;28;20034;-78
2022/06/06 01:22:47;;;;;;;4.03;3.63;;;18.90;99.60;;;;;;5011731;28;20057;-78
2022/06/06 01:25:46;;;;;;;5.97;3.75;;;18.90;99.50;;;;;;5011808;28;20037;-78
2022/06/06 01:28:26;;;;;;;6.55;4.75;;;18.90;99.60;;;;;;5012083;28;20034;-80
2022/06/06 01:30:56;;;;;;;5.35;4.00;;;19.00;99.40;;;;;;5011634;28;20042;-80
2022/06/06 01:33:22;;;;;;;6.65;4.60;;;18.90;99.60;;;;;;5012388;28;20036;-77
2022/06/06 01:35:50;;;;;;;6.50;4.25;;;19.00;99.40;;;;;;5019437;28;20547;-79
2022/06/06 01:38:21;;;;;;;5.03;4.40;;;19.00;99.50;;;;;;5031642;28;20120;-78
2022/06/06 01:40:51;;;;;;;5.45;4.38;;;19.00;99.60;;;;;;5031165;28;20415;-79
2022/06/06 01:43:31;;;;;;;7.75;4.30;;;19.00;99.50;;;;;;5031397;28;20132;-79
2022/06/06 01:46:01;;;;;;;7.28;5.18;;;19.00;99.50;;;;;;5031281;28;20038;-78
2022/06/06 01:48:34;;;;;;;5.05;4.25;;;19.00;99.40;;;;;;5031942;28;20018;-78
2022/06/06 01:51:27;;;;;;;5.47;4.55;;;19.00;99.30;;;;;;5031668;28;20545;-76
2022/06/06 01:53:53;;;;;;;8.77;4.82;;;19.00;99.30;;;;;;5031555;28;20449;-79
2022/06/06 01:56:33;;;;;;;7.82;4.40;;;19.00;99.80;;;;;;5031805;28;20033;-78
2022/06/06 01:58:59;;;;;;;5.05;4.35;;;19.00;99.40;;;;;;5031201;28;20053;-77
2022/06/06 02:01:39;;;;;;;5.45;4.40;;;19.00;99.30;;;;;;5029598;28;20032;-78
2022/06/06 02:04:05;;;;;;;8.15;5.35;;;19.00;99.30;;;;;;5031004;28;20021;-77
2022/06/06 02:06:31;;;;;;;8.23;5.13;;;19.10;99.30;;;;;;5031458;28;20040;-79
2022/06/06 02:08:56;;;;;;;10.00;5.40;;;19.10;99.30;;;;;;5030868;28;20087;-80
2022/06/06 02:11:22;;;;;;;8.25;6.18;;;19.10;99.30;;;;;;5030985;28;20044;-79
2022/06/06 02:13:48;;;;;;;9.52;7.05;;;19.10;99.30;;;;;;5031123;28;20127;-80
2022/06/06 02:16:24;;;;;;;10.45;7.90;;;19.00;99.30;;;;;;5030248;28;20375;-79
2022/06/06 02:18:49;;;;;;;14.68;7.70;;;19.00;99.30;;;;;;5030902;28;20047;-78
2022/06/06 02:21:21;;;;;;;13.55;8.07;;;19.00;99.50;;;;;;5031308;28;20459;-78
2022/06/06 02:23:48;;;;;;;10.27;7.43;;;19.00;99.50;;;;;;5029970;28;20111;-79
2022/06/06 02:26:23;;;;;;;12.13;8.57;;;19.00;99.50;;;;;;5031204;28;20347;-79
2022/06/06 02:28:49;;;;;;;14.38;9.32;;;19.00;99.60;;;;;;5030866;28;20354;-79
2022/06/06 02:31:20;;;;;;;16.30;10.55;;;19.00;99.50;;;;;;5030533;28;20137;-79
2022/06/06 02:33:45;;;;;;;16.85;11.25;;;19.00;99.40;;;;;;5031214;28;20455;-77
2022/06/06 02:36:11;;;;;;;15.27;10.50;;;19.00;99.40;;;;;;5030914;28;20048;-78
2022/06/06 02:38:37;;;;;;;16.75;12.32;;;19.10;99.40;;;;;;5030796;28;20106;-78
2022/06/06 02:41:22;;;;;;;18.08;12.27;;;19.00;99.50;;;;;;5030739;28;20505;-77
2022/06/06 02:43:48;;;;;;;19.20;12.63;;;19.00;99.40;;;;;;5030956;28;20036;-77
2022/06/06 02:46:32;;;;;;;18.25;12.73;;;19.10;99.50;;;;;;5031104;28;20025;-79
2022/06/06 02:48:57;;;;;;;20.98;14.20;;;19.00;99.50;;;;;;5030715;28;20025;-78
2022/06/06 02:51:26;;;;;;;21.67;13.43;;;19.00;99.60;;;;;;5031363;28;20026;-78
2022/06/06 02:53:51;;;;;;;19.50;13.77;;;19.10;99.50;;;;;;5030957;28;20519;-78
2022/06/06 02:56:29;;;;;;;22.55;13.52;;;19.10;99.50;;;;;;5031288;28;20132;-78
2022/06/06 02:59:00;;;;;;;24.50;13.48;;;19.20;99.60;;;;;;5030645;28;20026;-78
2022/06/06 03:01:35;;;;;;;19.33;13.98;;;19.10;99.50;;;;;;5030722;28;20447;-79
2022/06/06 03:04:01;;;;;;;26.73;13.27;;;19.10;99.50;;;;;;5030601;28;20018;-78
2022/06/06 03:06:45;;;;;;;23.35;14.18;;;19.10;99.40;;;;;;5031059;28;20151;-78
2022/06/06 03:09:40;;;;;;;21.30;13.30;;;19.10;99.50;;;;;;5030437;28;20026;-77
2022/06/06 03:12:16;;;;;;;22.88;15.10;;;19.10;99.60;;;;;;5022773;28;20065;-80
2022/06/06 03:15:00;;;;;;;18.98;13.32;;;19.10;99.70;;;;;;5033268;28;20121;-80
2022/06/06 03:20:47;;;;;;;19.77;13.27;;;19.10;99.70;;;;;;5034209;28;20320;-78
2022/06/06 03:23:31;;;;;;;;;;;19.10;99.60;;;;;;5034019;28;20029;-78
2022/06/06 03:26:34;;;;;;;21.10;12.95;;;19.10;99.70;;;;;;5034816;28;19909;-80
2022/06/06 03:29:00;;;;;;;20.30;13.23;;;19.10;99.70;;;;;;5034582;28;20092;-80
2022/06/06 03:32:13;;;;;;;18.88;11.85;;;19.10;99.80;;;;;;5034076;28;20479;-80
2022/06/06 03:34:54;;;;;;;17.75;12.57;;;19.10;99.80;;;;;;5012097;28;20065;-78
2022/06/06 03:37:19;;;;;;;16.35;11.63;;;19.00;99.90;;;;;;5012057;28;20455;-80
2022/06/06 03:39:54;;;;;;;16.52;11.95;;;19.10;99.90;;;;;;5024492;28;20130;-79
2022/06/06 03:42:44;;;;;;;15.32;11.20;;;19.20;99.80;;;;;;5034111;28;20029;-80
2022/06/06 03:45:24;;;;;;;18.27;11.48;;;19.10;99.90;;;;;;5032599;28;20433;-79
2022/06/06 03:48:25;;;;;;;18.95;11.70;;;19.10;99.80;;;;;;5033808;28;20084;-78
2022/06/06 03:50:50;;;;;;;14.85;10.75;;;19.10;99.80;;;;;;5030428;28;20053;-79
2022/06/06 03:53:25;;;;;;;17.42;10.75;;;19.10;99.80;;;;;;5033884;28;20049;-79
2022/06/06 03:55:54;;;;;;;14.40;10.38;;;19.10;99.70;;;;;;5032873;28;20095;-79
2022/06/06 03:58:22;;;;;;;19.08;13.07;;;19.10;99.80;;;;;;5033805;28;20112;-78
2022/06/06 04:00:49;;;;;;;18.92;12.90;;;19.10;99.80;;;;;;5034035;28;20081;-79
2022/06/06 04:03:16;;;;;;;18.83;12.50;;;19.10;99.70;;;;;;5033743;28;20474;-80
2022/06/06 04:05:42;;;;;;;16.73;11.55;;;19.10;99.50;;;;;;5033460;28;20487;-79
2022/06/06 04:08:09;;;;;;;20.13;12.63;;;19.10;99.50;;;;;;5033501;28;20041;-78
2022/06/06 04:11:02;;;;;;;20.00;12.88;;;19.10;99.40;;;;;;5032286;28;20037;-79
2022/06/06 04:13:57;;;;;;;20.65;12.82;;;19.10;99.40;;;;;;5032287;28;20029;-79
2022/06/06 04:16:44;;;;;;;18.13;12.90;;;19.00;99.40;;;;;;5033406;28;20034;-79
2022/06/06 04:19:22;;;;;;;18.05;12.50;;;19.00;99.40;;;;;;5033010;28;20037;-79
2022/06/06 04:22:13;;;;;;;22.40;13.25;;;19.10;99.40;;;;;;5033299;28;20032;-79
2022/06/06 04:25:04;;;;;;;26.70;13.98;;;19.10;99.30;;;;;;5032773;28;20038;-78
2022/06/06 04:27:58;;;;;;;23.35;14.32;;;19.00;99.20;;;;;;5033042;28;20420;-78
2022/06/06 04:30:55;;;;;;;26.52;14.60;;;19.00;99.20;;;;;;5032468;28;20483;-77
2022/06/06 04:33:28;;;;;;;25.60;15.00;;;19.00;99.30;;;;;;5031562;28;20128;-79
2022/06/06 04:36:02;;;;;;;26.95;15.35;;;18.90;99.20;;;;;;5033265;28;20025;-81
2022/06/06 04:38:49;;;;;;;23.83;15.43;;;18.90;99.20;;;;;;5031708;28;20025;-81
2022/06/06 04:41:34;;;;;;;;;;;19.00;99.20;;;;;;5033327;28;20490;-80
2022/06/06 04:44:23;;;;;;;26.85;14.20;;;18.90;99.10;;;;;;5032788;28;19920;-82
2022/06/06 04:47:10;;;;;;;31.00;14.98;;;19.00;99.00;;;;;;5032628;28;20048;-79
2022/06/06 04:49:36;;;;;;;25.95;15.30;;;19.00;98.80;;;;;;5032809;28;20076;-81
2022/06/06 04:52:03;;;;;;;26.80;15.40;;;18.90;98.80;;;;;;5032448;28;20058;-80
2022/06/06 04:54:30;;;;;;;22.75;14.07;;;18.80;98.70;;;;;;5033169;28;20372;-80
2022/06/06 04:57:00;;;;;;;26.90;15.25;;;18.70;98.60;;;;;;5032385;28;20036;-80
2022/06/06 04:59:29;;;;;;;27.98;15.38;;;18.70;98.60;;;;;;5031505;28;20040;-81
2022/06/06 05:02:14;;;;;;;20.73;13.00;;;18.70;98.60;;;;;;5031779;28;20025;-82
2022/06/06 05:04:40;;;;;;;23.02;13.25;;;18.80;98.60;;;;;;5032594;28;20386;-81
2022/06/06 05:07:24;;;;;;;24.83;13.80;;;18.90;98.50;;;;;;5032375;28;20443;-80
2022/06/06 05:10:02;;;;;;;23.02;12.45;;;18.90;98.30;;;;;;5030671;28;20026;-77
2022/06/06 05:12:48;;;;;;;25.35;12.70;;;18.90;98.10;;;;;;5032555;28;20037;-79
2022/06/06 05:15:38;;;;;;;23.17;12.63;;;18.90;98.00;;;;;;5030781;28;20367;-80
2022/06/06 05:18:50;;;;;;;22.95;12.27;;;18.90;97.90;;;;;;5031804;28;20109;-81
2022/06/06 05:21:31;;;;;;;19.00;10.90;;;18.80;97.80;;;;;;5026864;28;20398;-80
2022/06/06 05:24:24;;;;;;;19.52;10.48;;;18.90;97.90;;;;;;5031614;28;20034;-80
2022/06/06 05:27:17;;;;;;;24.70;12.00;;;19.00;97.80;;;;;;5025223;28;20041;-79
2022/06/06 05:29:59;;;;;;;20.85;11.75;;;19.10;97.70;;;;;;5031594;28;20057;-80
2022/06/06 05:32:34;;;;;;;21.90;11.57;;;19.20;97.60;;;;;;5030103;28;20456;-79
2022/06/06 05:35:15;;;;;;;19.55;11.70;;;19.20;97.50;;;;;;5031207;28;20290;-78
2022/06/06 05:38:15;;;;;;;19.88;12.00;;;19.30;97.50;;;;;;5031053;28;20026;-80
2022/06/06 05:40:51;;;;;;;20.95;12.30;;;19.20;97.30;;;;;;5031399;28;20418;-80
2022/06/06 05:43:26;;;;;;;19.67;11.10;;;19.10;97.00;;;;;;5031442;28;20029;-78
2022/06/06 05:45:57;;;;;;;19.77;10.75;;;19.20;97.00;;;;;;5031156;28;20037;-79
2022/06/06 05:48:41;;;;;;;20.80;12.50;;;19.20;97.10;;;;;;5031731;28;20093;-81
2022/06/06 05:51:29;;;;;;;20.42;11.32;;;19.20;96.90;;;;;;5031316;28;20052;-80
2022/06/06 05:54:01;;;;;;;19.52;10.13;;;19.20;97.00;;;;;;5031287;28;20026;-81
2022/06/06 05:56:32;;;;;;;17.23;9.77;;;19.00;96.80;;;;;;5031156;28;20039;-80
2022/06/06 05:59:25;;;;;;;15.05;8.57;;;19.10;96.60;;;;;;5031304;28;20029;-79
2022/06/06 06:02:13;;;;;;;18.48;9.30;;;19.00;96.50;;;;;;5030998;28;20434;-80
2022/06/06 06:04:47;;;;;;;14.68;8.48;;;19.10;96.60;;;;;;5031040;28;20083;-79
2022/06/06 06:07:50;;;;;;;15.20;8.32;;;19.00;96.50;;;;;;5030157;28;20080;-78
2022/06/06 06:10:18;;;;;;;15.60;8.65;;;19.00;96.60;;;;;;5030736;28;20183;-80
2022/06/06 06:13:06;;;;;;;13.98;8.52;;;18.90;96.60;;;;;;5031477;28;20459;-82
2022/06/06 06:15:34;;;;;;;;;;;18.90;96.80;;;;;;5031377;28;20042;-80
2022/06/06 06:18:03;;;;;;;15.32;9.32;;;19.00;96.80;;;;;;5030871;28;20314;-80
2022/06/06 06:20:33;;;;;;;15.38;9.15;;;19.10;96.70;;;;;;5029763;28;20364;-80
2022/06/06 06:23:07;;;;;;;13.55;8.57;;;19.10;96.60;;;;;;5030725;28;20029;-79
2022/06/06 06:25:39;;;;;;;17.35;9.63;;;19.20;96.60;;;;;;5030546;28;20033;-77
2022/06/06 06:28:11;;;;;;;21.70;11.25;;;19.20;96.70;;;;;;5030792;28;20025;-79
2022/06/06 06:31:31;;;;;;;22.63;12.55;;;19.20;96.80;;;;;;5030886;28;20057;-80
2022/06/06 06:34:19;;;;;;;22.38;13.68;;;19.20;96.70;;;;;;5008810;28;20109;-80
2022/06/06 06:36:50;;;;;;;23.90;13.30;;;19.30;97.00;;;;;;5030218;28;20341;-82
2022/06/06 06:39:41;;;;;;;24.92;14.70;;;19.30;96.90;;;;;;5030245;28;20167;-83
2022/06/06 06:42:37;;;;;;;25.02;14.38;;;19.40;96.90;;;;;;5030154;28;20041;-82
2022/06/06 06:45:21;;;;;;;26.38;14.05;;;19.60;96.60;;;;;;5029689;28;20025;-79
2022/06/06 06:47:52;;;;;;;27.38;14.70;;;19.60;96.50;;;;;;5033346;28;20469;-78
2022/06/06 06:50:35;;;;;;;24.50;14.77;;;19.70;96.60;;;;;;5034811;28;20033;-77
2022/06/06 06:53:44;;;;;;;20.38;12.55;;;19.90;96.30;;;;;;5034567;28;20176;-79
2022/06/06 06:57:01;;;;;;;20.05;12.27;;;20.00;96.00;;;;;;5033434;28;20037;-76
2022/06/06 06:59:48;;;;;;;21.85;12.13;;;20.10;95.60;;;;;;5022216;28;20028;-78
2022/06/06 07:08:59;;;;;;;18.75;11.65;;;20.30;94.80;;;;;;5034642;28;20114;-83
2022/06/06 07:11:40;;;;;;;17.95;10.30;;;20.30;95.00;;;;;;5034411;28;20056;-80
2022/06/06 07:14:39;;;;;;;16.55;9.77;;;20.20;94.80;;;;;;5033195;28;20036;-81
2022/06/06 07:17:08;;;;;;;15.48;9.73;;;20.20;94.60;;;;;;5034689;28;20037;-80
2022/06/06 07:19:39;;;;;;;17.33;10.20;;;20.10;94.40;;;;;;5034018;28;20049;-80
2022/06/06 07:22:06;;;;;;;16.45;9.40;;;20.10;94.80;;;;;;5033649;28;20296;-79
2022/06/06 07:24:32;;;;;;;13.13;8.57;;;20.20;94.60;;;;;;5034535;28;20095;-83
2022/06/06 07:27:00;;;;;;;18.00;10.25;;;20.20;94.60;;;;;;5034038;28;20029;-77
2022/06/06 07:29:26;;;;;;;14.45;9.02;;;20.30;94.30;;;;;;5033902;28;20041;-78
2022/06/06 07:32:12;;;;;;;13.25;9.10;;;20.50;94.30;;;;;;5033728;28;20049;-77
2022/06/06 07:35:00;;;;;;;14.23;9.07;;;20.70;94.30;;;;;;5033749;28;20033;-80
2022/06/06 07:37:29;;;;;;;14.50;9.57;;;20.80;93.40;;;;;;5033791;28;20033;-78
2022/06/06 07:40:22;;;;;;;16.90;9.65;;;20.50;93.30;;;;;;5033273;28;20075;-77
2022/06/06 07:43:14;;;;;;;14.05;8.80;;;20.60;93.80;;;;;;5034154;28;20040;-78
2022/06/06 07:45:46;;;;;;;12.10;8.60;;;20.70;93.60;;;;;;5033943;28;20041;-78
2022/06/06 07:48:33;;;;;;;12.90;8.27;;;20.80;93.30;;;;;;5033769;28;20049;-80
2022/06/06 07:51:26;;;;;;;12.65;7.43;;;20.90;93.10;;;;;;5033345;28;20120;-81
2022/06/06 07:54:27;;;;;;;13.25;8.05;;;20.90;92.90;;;;;;5033337;28;20030;-79
2022/06/06 07:57:17;;;;;;;14.48;8.40;;;21.00;92.80;;;;;;5026808;28;20116;-83
2022/06/06 08:00:12;;;;;;;12.80;8.73;;;20.90;92.60;;;;;;5032595;28;20026;-79
2022/06/06 08:02:50;;;;;;;10.32;7.60;;;21.00;92.60;;;;;;5033273;28;20057;-79
2022/06/06 08:05:37;;;;;;;14.05;8.85;;;20.80;92.40;;;;;;5033352;28;20427;-78
2022/06/06 08:08:31;;;;;;;14.15;9.20;;;20.80;92.80;;;;;;5033210;28;20025;-81
2022/06/06 08:11:28;;;;;;;12.63;8.00;;;21.00;92.80;;;;;;5029808;28;20063;-80
2022/06/06 08:14:17;;;;;;;15.13;7.63;;;21.80;91.90;;;;;;5033421;28;20080;-81
2022/06/06 08:16:49;;;;;;;11.02;8.07;;;22.70;91.30;;;;;;5033168;28;20374;-78
2022/06/06 08:19:22;;;;;;;11.65;7.63;;;23.30;89.80;;;;;;5032027;28;20044;-80
2022/06/06 08:21:49;;;;;;;11.52;8.35;;;23.40;89.90;;;;;;5033354;28;20028;-80
2022/06/06 08:24:32;;;;;;;10.75;8.63;;;23.10;88.80;;;;;;5033009;28;20077;-79
2022/06/06 08:27:00;;;;;;;12.60;8.15;;;23.10;90.00;;;;;;5032738;28;20202;-79
2022/06/06 08:29:27;;;;;;;18.50;8.07;;;23.40;88.40;;;;;;5032960;28;20040;-77
2022/06/06 08:31:54;;;;;;;11.13;7.45;;;23.00;89.20;;;;;;5032543;28;20152;-79
2022/06/06 08:34:21;;;;;;;9.73;6.82;;;23.40;89.90;;;;;;5032656;28;20029;-78
2022/06/06 08:37:13;;;;;;;9.50;6.30;;;24.10;87.50;;;;;;5033388;28;20049;-74
2022/06/06 08:39:57;;;;;;;7.28;5.72;;;24.80;84.90;;;;;;5032481;28;20072;-78
2022/06/06 08:42:33;;;;;;;6.70;4.68;;;25.40;84.10;;;;;;5032781;28;20053;-78
2022/06/06 08:45:14;;;;;;;8.63;5.57;;;25.60;80.60;;;;;;5032504;28;20030;-78
2022/06/06 08:47:55;;;;;;;7.57;5.20;;;25.00;80.00;;;;;;5031215;28;20487;-74
2022/06/06 08:50:44;;;;;;;8.18;5.32;;;24.60;81.40;;;;;;5032510;28;20401;-77
2022/06/06 08:53:19;;;;;;;8.27;5.05;;;24.20;82.40;;;;;;5032264;28;20049;-76
2022/06/06 08:56:20;;;;;;;8.55;4.72;;;23.60;83.90;;;;;;5026560;28;20037;-77
2022/06/06 08:59:04;;;;;;;4.63;3.85;;;23.60;84.50;;;;;;5011124;28;20034;-76
2022/06/06 09:01:58;;;;;;;5.60;3.72;;;23.90;84.30;;;;;;5011491;28;20041;-76
2022/06/06 09:04:55;;;;;;;5.70;4.15;;;23.70;82.50;;;;;;5012800;28;20059;-76
2022/06/06 09:08:08;;;;;;;6.40;4.00;;;23.10;83.30;;;;;;5013176;28;20030;-76
2022/06/06 09:10:49;;;;;;;8.45;4.32;;;23.20;84.00;;;;;;5010953;28;20029;-76
2022/06/06 09:13:35;;;;;;;11.95;5.57;;;22.90;85.10;;;;;;5010851;28;20034;-76
2022/06/06 09:16:21;;;;;;;6.28;4.05;;;23.50;85.50;;;;;;5007104;28;20037;-76
2022/06/06 09:19:13;;;;;;;4.87;3.90;;;23.70;83.10;;;;;;5012709;28;20037;-77
2022/06/06 09:21:48;;;;;;;5.38;3.95;;;23.20;83.00;;;;;;5011637;28;20374;-77
2022/06/06 09:24:27;;;;;;;6.53;3.38;;;22.70;83.40;;;;;;5011049;28;20038;-77
2022/06/06 09:26:55;;;;;;;5.38;3.33;;;22.70;84.60;;;;;;5010699;28;20030;-76
2022/06/06 09:29:40;;;;;;;3.83;2.80;;;22.70;83.90;;;;;;5011958;28;20459;-76
2022/06/06 09:32:35;;;;;;;4.68;3.00;;;22.90;83.10;;;;;;5012047;28;20046;-76
2022/06/06 09:35:42;;;;;;;5.15;3.22;;;23.20;82.20;;;;;;5012047;28;20038;-76
2022/06/06 09:38:13;;;;;;;4.35;2.53;;;23.50;82.50;;;;;;5012289;28;20036;-77
2022/06/06 09:40:58;;;;;;;4.38;2.72;;;23.60;80.10;;;;;;5011472;28;20048;-75
2022/06/06 09:43:55;;;;;;;6.93;2.53;;;24.10;80.80;;;;;;5010589;28;20133;-75
2022/06/06 09:46:59;;;;;;;4.63;2.55;;;24.20;79.30;;;;;;5011519;28;20025;-77
2022/06/06 09:49:48;;;;;;;4.15;2.92;;;24.50;78.90;;;;;;5009575;28;20455;-75
2022/06/06 09:52:47;;;;;;;4.22;2.42;;;24.30;78.50;;;;;;5009592;28;20129;-77
2022/06/06 09:59:02;;;;;;;4.50;2.67;;;24.60;75.90;;;;;;5011229;28;20132;-75
2022/06/06 10:02:06;;;;;;;3.15;2.15;;;24.20;76.10;;;;;;5011034;28;20030;-77
2022/06/06 10:05:10;;;;;;;6.82;1.55;;;23.70;77.70;;;;;;5011144;28;20135;-73
2022/06/06 10:08:14;;;;;;;2.03;1.17;;;24.00;74.50;;;;;;5011159;28;20452;-76
2022/06/06 10:11:01;;;;;;;4.13;1.60;;;24.10;72.80;;;;;;5010922;28;20453;-77
2022/06/06 10:14:02;;;;;;;2.07;1.60;;;24.20;73.60;;;;;;5011473;28;20077;-76
2022/06/06 10:16:50;;;;;;;2.50;1.40;;;24.30;73.50;;;;;;5010879;28;20025;-77
2022/06/06 10:19:27;;;;;;;2.40;1.65;;;24.30;73.30;;;;;;5010997;28;20096;-77
2022/06/06 10:22:43;;;;;;;2.33;1.42;;;24.30;73.00;;;;;;5009586;28;20036;-76
2022/06/06 10:25:29;;;;;;;4.43;1.42;;;24.40;71.50;;;;;;5009937;28;20131;-77
2022/06/06 10:28:22;;;;;;;2.75;1.10;;;23.90;71.80;;;;;;5010460;28;20125;-75
2022/06/06 10:35:09;;;;;;;1.55;1.20;;;24.10;71.80;;;;;;5008416;28;20371;-76
2022/06/06 10:37:35;;;;;;;2.13;1.40;;;23.70;72.00;;;;;;4995996;28;20475;-76
2022/06/06 10:40:22;;;;;;;3.95;1.73;;;23.50;72.70;;;;;;5010472;28;20072;-77
2022/06/06 10:43:06;;;;;;;3.83;2.13;;;23.50;72.80;;;;;;5010863;28;20033;-75
2022/06/06 10:45:37;;;;;;;3.85;1.60;;;23.70;73.30;;;;;;5009908;28;20038;-76
2022/06/06 10:48:09;;;;;;;1.67;1.30;;;23.90;72.60;;;;;;5010709;28;20026;-77
2022/06/06 10:54:22;;;;;;;1.45;1.10;;;24.20;69.60;;;;;;5010144;28;20037;-77
2022/06/06 10:57:24;;;;;;;1.65;1.02;;;23.90;68.00;;;;;;5010719;28;20034;-76
2022/06/06 11:00:08;;;;;;;1.83;1.35;;;23.70;67.50;;;;;;5010906;28;20030;-76
2022/06/06 11:02:45;;;;;;;1.83;1.20;;;23.70;67.90;;;;;;5011039;28;20033;-77
2022/06/06 11:05:48;;;;;;;2.30;1.13;;;23.60;67.90;;;;;;5009419;28;20026;-78
2022/06/06 11:08:32;;;;;;;1.88;1.13;;;23.70;68.40;;;;;;5010385;28;20022;-75
2022/06/06 11:11:35;;;;;;;2.78;1.23;;;23.70;68.40;;;;;;5010479;28;20465;-76
2022/06/06 11:14:03;;;;;;;2.53;1.77;;;24.00;69.00;;;;;;5010478;28;20396;-76
2022/06/06 11:16:31;;;;;;;3.75;1.58;;;24.10;67.20;;;;;;5010668;28;20367;-77
2022/06/06 11:19:20;;;;;;;2.53;1.60;;;24.10;67.00;;;;;;5009254;28;20033;-77
2022/06/06 11:22:32;;;;;;;7.95;1.35;;;24.20;68.10;;;;;;5010996;28;20033;-78
2022/06/06 11:25:19;;;;;;;6.55;4.55;;;24.40;68.50;;;;;;5010765;28;20380;-78
2022/06/06 11:28:11;;;;;;;4.28;1.92;;;24.50;66.80;;;;;;5009846;28;20180;-77
2022/06/06 11:34:19;;;;;;;1.80;1.10;;;24.60;65.60;;;;;;5011204;28;20092;-77
2022/06/06 11:37:21;;;;;;;1.90;0.95;;;24.60;65.70;;;;;;5014949;28;20050;-78
2022/06/06 11:39:56;;;;;;;1.83;0.93;;;24.60;64.60;;;;;;5014158;28;20026;-79
2022/06/06 11:42:30;;;;;;;2.25;1.05;;;24.60;64.10;;;;;;5013287;28;20383;-77
2022/06/06 11:45:17;;;;;;;1.17;0.95;;;24.40;63.50;;;;;;5012761;28;20367;-79
2022/06/06 11:48:15;;;;;;;1.42;0.70;;;24.50;63.70;;;;;;5013806;28;20113;-79
2022/06/06 11:51:03;;;;;;;4.63;1.00;;;24.40;62.40;;;;;;5012999;28;20610;-77
2022/06/06 11:53:38;;;;;;;2.50;0.80;;;24.50;62.20;;;;;;5013653;28;20121;-77
2022/06/06 11:56:28;;;;;;;0.88;0.63;;;24.40;61.20;;;;;;5013619;28;20105;-78
2022/06/06 11:59:02;;;;;;;0.90;0.90;;;24.40;59.30;;;;;;5013596;28;20037;-78
2022/06/06 12:01:58;;;;;;;2.20;0.98;;;24.00;60.10;;;;;;5012460;28;20033;-76
2022/06/06 12:05:08;;;;;;;1.50;0.80;;;24.10;60.60;;;;;;5013774;28;20026;-76
2022/06/06 12:08:11;;;;;;;1.85;0.85;;;24.40;60.10;;;;;;5013788;28;20022;-78
2022/06/06 12:10:48;;;;;;;1.55;1.15;;;24.60;60.40;;;;;;5012233;28;20037;-79
2022/06/06 12:13:46;;;;;;;1.23;0.98;;;24.30;61.30;;;;;;5012129;28;20026;-77
2022/06/06 12:20:06;;;;;;;5.00;1.15;;;24.60;60.50;;;;;;5027598;28;20138;-78
2022/06/06 12:22:43;;;;;;;0.65;0.65;;;24.60;59.70;;;;;;5017651;28;20025;-78
2022/06/06 12:25:28;;;;;;;;;;;24.50;58.80;;;;;;5032038;28;20033;-77
2022/06/06 12:28:00;;;;;;;1.98;1.13;;;24.50;58.90;;;;;;5032953;28;19905;-76
2022/06/06 12:30:30;;;;;;;1.00;0.95;;;24.70;59.30;;;;;;5032767;28;20351;-77
2022/06/06 12:33:04;;;;;;;2.05;0.90;;;24.80;58.40;;;;;;5032928;28;20060;-76
2022/06/06 12:35:35;;;;;;;2.15;1.17;;;24.40;57.90;;;;;;5032525;28;20048;-76
2022/06/06 12:38:26;;;;;;;0.93;0.73;;;24.40;59.60;;;;;;5032567;28;20034;-78
2022/06/06 12:41:14;;;;;;;1.58;0.90;;;24.50;60.30;;;;;;5032333;28;20041;-76
2022/06/06 12:43:48;;;;;;;;;;;24.40;59.90;;;;;;5032825;28;20037;-77
2022/06/06 12:46:17;;;;;;;2.92;1.00;;;24.60;59.80;;;;;;5032090;28;20362;-76
2022/06/06 12:48:56;;;;;;;5.63;1.10;;;24.50;59.40;;;;;;5032672;28;20349;-77
2022/06/06 12:51:46;;;;;;;2.22;1.15;;;24.40;59.50;;;;;;5031240;28;20379;-79
2022/06/06 12:54:15;;;;;;;2.97;1.10;;;24.40;59.90;;;;;;5032174;28;20574;-77
2022/06/06 12:56:54;;;;;;;3.28;1.20;;;24.50;59.90;;;;;;5032064;28;20030;-77
2022/06/06 12:59:29;;;;;;;2.65;1.17;;;24.40;59.50;;;;;;5031629;28;20044;-76
2022/06/06 13:01:59;;;;;;;1.85;1.20;;;24.40;58.90;;;;;;5032290;28;20688;-77
2022/06/06 13:04:53;;;;;;;3.60;1.02;;;24.50;58.10;;;;;;5030994;28;20118;-77
2022/06/06 13:07:41;;;;;;;1.65;0.77;;;24.70;58.50;;;;;;5031072;28;20053;-77
2022/06/06 13:10:14;;;;;;;1.60;0.75;;;24.80;57.00;;;;;;5030462;28;20411;-78
2022/06/06 13:13:05;;;;;;;1.08;0.63;;;24.60;56.30;;;;;;5032270;28;20029;-77
2022/06/06 13:15:45;;;;;;;2.70;1.00;;;24.60;57.70;;;;;;5031724;28;20037;-77
2022/06/06 13:18:57;;;;;;;1.30;1.08;;;24.40;57.70;;;;;;5030678;28;20100;-77
2022/06/06 13:21:42;;;;;;;1.70;1.50;;;24.20;59.30;;;;;;5031810;28;20052;-77
2022/06/06 13:24:31;;;;;;;5.70;1.50;;;24.30;59.80;;;;;;5031441;28;20054;-78
2022/06/06 13:27:17;;;;;;;5.95;1.10;;;24.40;60.20;;;;;;5031307;28;20144;-76
2022/06/06 13:29:45;;;;;;;0.80;0.80;;;24.30;59.10;;;;;;5030960;28;20025;-76
2022/06/06 13:32:43;;;;;;;3.22;0.93;;;24.10;59.10;;;;;;5031257;28;20061;-77
2022/06/06 13:35:19;;;;;;;0.80;0.70;;;24.20;59.40;;;;;;5031233;28;20042;-78
2022/06/06 13:38:02;;;;;;;1.52;1.02;;;24.40;59.30;;;;;;5030038;28;20467;-77
2022/06/06 13:40:32;;;;;;;0.93;0.60;;;24.40;59.50;;;;;;5031358;28;20026;-77
2022/06/06 13:42:57;;;;;;;2.78;1.27;;;24.20;59.00;;;;;;5031315;28;20017;-76
2022/06/06 13:45:49;;;;;;;3.38;0.70;;;24.20;59.10;;;;;;5031519;28;20092;-77
2022/06/06 13:48:39;;;;;;;2.10;1.00;;;24.00;59.00;;;;;;5031216;28;20455;-77
2022/06/06 13:51:23;;;;;;;2.97;1.40;;;23.80;59.70;;;;;;5030802;28;20037;-75
2022/06/06 13:54:12;;;;;;;2.28;1.08;;;23.70;60.50;;;;;;5030972;28;20344;-78
2022/06/06 13:57:04;;;;;;;2.60;0.88;;;23.50;63.10;;;;;;5030370;28;20091;-78
2022/06/06 14:00:08;;;;;;;1.15;0.93;;;23.40;64.10;;;;;;5029979;28;20033;-76
2022/06/06 14:02:43;;;;;;;3.22;0.95;;;23.20;69.70;;;;;;5030834;28;20060;-77
2022/06/06 14:05:18;;;;;;;2.35;0.80;;;22.90;72.60;;;;;;5029854;28;20459;-76
2022/06/06 14:08:07;;;;;;;1.80;0.90;;;23.00;72.40;;;;;;5029860;28;20025;-79
2022/06/06 14:11:05;;;;;;;2.03;1.33;;;22.90;74.80;;;;;;5030861;28;20458;-78
2022/06/06 14:13:58;;;;;;;3.83;1.02;;;22.30;79.20;;;;;;5031237;28;20033;-78
2022/06/06 14:16:33;;;;;;;3.92;1.60;;;22.10;79.40;;;;;;5029753;28;20446;-79
2022/06/06 14:19:17;;;;;;;4.30;3.13;;;22.10;78.40;;;;;;5031170;28;20091;-79
2022/06/06 14:21:51;;;;;;;2.88;1.20;;;21.90;78.30;;;;;;5031364;28;20017;-79
2022/06/06 14:24:20;;;;;;;1.13;0.90;;;22.00;77.50;;;;;;5030066;28;20101;-78